Time;durP1;ratioP1;P1;durP2;ratioP2;P2;SDS_P1;SDS_P2;PMS_P1;PMS_P2;Temp;Humidity;BMP_temperature;BMP_pressure;BME280_temperature;BME280_humidity;BME280_pressure;Samples;Min_cycle;Max_cycle;Signal;HPM_P1;HPM_P2
2021/10/29 00:00:15;;;;;;;25.85;18.50;;;;;;;7.41;100.00;100790.22;5023804;28;20500;-54
2021/10/29 00:02:40;;;;;;;29.92;17.90;;;;;;;7.14;100.00;100792.53;5024939;28;20033;-56
2021/10/29 00:05:07;;;;;;;27.23;19.05;;;;;;;7.33;100.00;100806.88;5024567;28;20154;-53
2021/10/29 00:07:32;;;;;;;25.35;20.05;;;;;;;7.30;100.00;100799.09;5024334;28;20029;-49
2021/10/29 00:09:58;;;;;;;23.63;17.98;;;;;;;6.78;100.00;100802.91;5024980;28;20033;-55
2021/10/29 00:12:24;;;;;;;27.13;19.48;;;;;;;6.81;100.00;100797.09;5023415;28;20029;-50
2021/10/29 00:14:51;;;;;;;25.67;19.35;;;;;;;6.68;100.00;100788.06;5025093;28;20033;-57
2021/10/29 00:17:18;;;;;;;29.88;21.02;;;;;;;7.25;100.00;100788.72;5022227;28;20032;-55
2021/10/29 00:19:44;;;;;;;26.38;19.60;;;;;;;6.66;100.00;100791.34;5022570;28;20949;-58
2021/10/29 00:22:11;;;;;;;27.83;21.10;;;;;;;6.08;100.00;100780.34;5024183;28;20355;-54
2021/10/29 00:24:37;;;;;;;28.83;20.30;;;;;;;5.90;100.00;100781.16;5022079;28;20560;-57
2021/10/29 00:27:03;;;;;;;28.95;20.27;;;;;;;5.90;100.00;100783.69;5023210;28;20581;-55
2021/10/29 00:29:29;;;;;;;29.25;20.65;;;;;;;6.69;100.00;100792.31;5024525;28;20456;-56
2021/10/29 00:31:55;;;;;;;32.22;21.15;;;;;;;6.18;100.00;100789.25;5024788;28;20033;-57
2021/10/29 00:34:21;;;;;;;29.65;20.45;;;;;;;5.90;100.00;100783.69;5022845;28;20075;-56
2021/10/29 00:36:47;;;;;;;29.35;20.80;;;;;;;6.46;100.00;100783.72;5024418;28;20029;-55
2021/10/29 00:39:13;;;;;;;31.05;20.60;;;;;;;6.64;100.00;100784.50;5024581;28;20120;-55
2021/10/29 00:41:39;;;;;;;32.38;20.73;;;;;;;6.57;100.00;100792.69;5024337;28;20080;-54
2021/10/29 00:44:06;;;;;;;30.65;20.75;;;;;;;6.75;100.00;100799.34;5023939;28;20037;-58
2021/10/29 00:46:31;;;;;;;30.55;21.13;;;;;;;6.32;100.00;100795.81;5020869;28;20032;-53
2021/10/29 00:48:57;;;;;;;32.45;21.27;;;;;;;6.19;100.00;100793.53;5024135;28;20041;-56
2021/10/29 00:51:24;;;;;;;29.05;21.00;;;;;;;5.95;100.00;100787.34;5024384;28;20095;-55
2021/10/29 00:53:50;;;;;;;33.15;21.45;;;;;;;5.75;100.00;100784.72;5023622;28;20412;-54
2021/10/29 00:56:17;;;;;;;33.47;23.02;;;;;;;5.65;100.00;100777.47;5022517;28;20037;-51
2021/10/29 00:58:44;;;;;;;31.13;21.98;;;;;;;5.46;100.00;100783.38;5024207;28;20056;-55
2021/10/29 01:01:09;;;;;;;31.38;22.95;;;;;;;5.44;100.00;100767.16;5024391;28;20124;-59
2021/10/29 01:03:39;;;;;;;37.22;24.60;;;;;;;5.49;100.00;100765.72;5025788;28;20112;-57
2021/10/29 01:06:06;;;;;;;30.50;22.30;;;;;;;6.02;100.00;100774.13;5025768;28;20057;-60
2021/10/29 01:08:34;;;;;;;30.45;21.20;;;;;;;6.02;100.00;100772.44;5026120;28;20529;-55
2021/10/29 01:11:00;;;;;;;33.17;21.08;;;;;;;5.99;100.00;100763.81;5026161;28;20037;-55
2021/10/29 01:13:27;;;;;;;32.45;21.17;;;;;;;6.02;100.00;100761.41;5028567;28;20036;-54
2021/10/29 01:15:54;;;;;;;30.73;21.20;;;;;;;5.47;100.00;100758.84;5025284;28;20404;-57
2021/10/29 01:18:20;;;;;;;31.08;22.88;;;;;;;5.83;100.00;100759.69;5026545;28;20199;-57
2021/10/29 01:20:45;;;;;;;34.55;22.30;;;;;;;5.50;100.00;100753.88;5026010;28;20460;-52
2021/10/29 01:23:11;;;;;;;30.27;21.65;;;;;;;5.82;100.00;100761.34;5026887;28;20044;-56
2021/10/29 01:25:37;;;;;;;31.00;21.67;;;;;;;5.94;100.00;100758.50;5025111;28;20033;-59
2021/10/29 01:28:02;;;;;;;37.03;24.27;;;;;;;6.28;100.00;100762.56;5027610;28;20037;-59
2021/10/29 01:30:28;;;;;;;34.33;22.90;;;;;;;5.78;100.00;100766.22;5028603;28;20485;-58
2021/10/29 01:32:54;;;;;;;32.22;21.83;;;;;;;5.62;100.00;100764.63;5026896;28;20092;-53
2021/10/29 01:35:19;;;;;;;36.05;22.58;;;;;;;5.76;100.00;100758.50;5026664;28;20277;-58
2021/10/29 01:37:46;;;;;;;34.25;22.95;;;;;;;5.48;100.00;100741.13;5027153;28;20025;-55
2021/10/29 01:40:17;;;;;;;33.15;22.52;;;;;;;4.96;100.00;100738.63;5024320;28;20253;-54
2021/10/29 01:42:42;;;;;;;37.17;24.75;;;;;;;5.55;100.00;100735.53;5021066;28;20064;-55
2021/10/29 01:45:10;;;;;;;35.33;23.98;;;;;;;5.24;100.00;100738.31;5025916;28;20053;-55
2021/10/29 01:47:36;;;;;;;36.42;23.88;;;;;;;5.92;100.00;100741.47;5025747;28;20037;-53
2021/10/29 01:50:03;;;;;;;35.10;24.02;;;;;;;5.76;100.00;100728.03;5026782;28;20065;-54
2021/10/29 01:52:29;;;;;;;33.90;23.77;;;;;;;5.59;100.00;100732.34;5024446;28;20512;-55
2021/10/29 01:54:55;;;;;;;28.88;21.65;;;;;;;5.42;100.00;100732.34;5026944;28;20117;-59
2021/10/29 01:57:21;;;;;;;36.03;22.90;;;;;;;5.63;100.00;100728.25;5025834;28;20125;-57
2021/10/29 01:59:47;;;;;;;37.40;24.60;;;;;;;5.96;100.00;100730.63;5026967;28;20037;-56
2021/10/29 02:02:13;;;;;;;37.35;25.05;;;;;;;5.94;100.00;100737.31;5025080;28;20087;-56
2021/10/29 02:04:40;;;;;;;36.13;24.80;;;;;;;6.00;100.00;100727.41;5026123;28;20033;-54
2021/10/29 02:07:06;;;;;;;42.13;26.90;;;;;;;6.17;100.00;100729.03;5026032;28;20053;-55
2021/10/29 02:09:32;;;;;;;44.03;27.30;;;;;;;6.09;100.00;100726.16;5025020;28;20164;-57
2021/10/29 02:11:57;;;;;;;38.85;26.48;;;;;;;5.93;100.00;100720.34;5025742;28;20037;-54
2021/10/29 02:14:23;;;;;;;44.95;28.17;;;;;;;5.72;100.00;100720.19;5025039;28;20393;-56
2021/10/29 02:16:49;;;;;;;43.17;28.02;;;;;;;6.12;100.00;100721.22;5026318;28;20693;-56
2021/10/29 02:19:15;;;;;;;44.42;26.88;;;;;;;5.81;100.00;100720.59;5026300;28;20746;-55
2021/10/29 02:21:41;;;;;;;40.95;27.67;;;;;;;5.94;100.00;100724.59;5026736;28;20218;-58
2021/10/29 02:24:07;;;;;;;45.60;28.25;;;;;;;5.92;100.00;100723.69;5022893;28;20132;-56
2021/10/29 02:26:34;;;;;;;40.83;27.70;;;;;;;5.48;100.00;100719.94;5024991;28;20049;-55
2021/10/29 02:29:01;;;;;;;39.63;27.65;;;;;;;5.91;100.00;100727.84;5025900;28;20034;-55
2021/10/29 02:31:26;;;;;;;43.38;28.52;;;;;;;5.23;100.00;100718.78;5025410;28;20053;-60
2021/10/29 02:33:56;;;;;;;45.97;28.92;;;;;;;5.40;100.00;100714.50;5025821;28;20060;-53
2021/10/29 02:36:23;;;;;;;44.25;28.88;;;;;;;5.17;100.00;100710.88;5025973;28;20504;-56
2021/10/29 02:38:49;;;;;;;47.33;28.60;;;;;;;5.48;100.00;100709.78;5026065;28;20125;-55
2021/10/29 02:41:15;;;;;;;43.70;27.33;;;;;;;5.36;100.00;100705.88;5025595;28;20116;-55
2021/10/29 02:43:47;;;;;;;43.85;28.63;;;;;;;5.83;100.00;100714.81;5025342;28;20039;-49
2021/10/29 02:46:13;;;;;;;39.05;27.23;;;;;;;5.38;100.00;100700.88;5025741;28;20063;-50
2021/10/29 02:48:39;;;;;;;43.40;27.48;;;;;;;5.66;100.00;100703.00;5024820;28;20063;-49
2021/10/29 02:51:04;;;;;;;42.40;27.90;;;;;;;5.57;100.00;100707.66;5025063;28;20029;-49
2021/10/29 02:53:31;;;;;;;41.80;27.30;;;;;;;5.42;100.00;100704.44;5026070;28;20112;-55
2021/10/29 02:55:57;;;;;;;43.25;27.70;;;;;;;4.94;100.00;100704.69;5025664;28;20040;-55
2021/10/29 02:58:26;;;;;;;43.80;28.50;;;;;;;4.89;100.00;100712.88;5025957;28;20038;-54
2021/10/29 03:00:51;;;;;;;40.97;27.38;;;;;;;5.05;100.00;100717.91;5021473;28;20146;-55
2021/10/29 03:03:17;;;;;;;41.88;27.20;;;;;;;4.88;100.00;100708.63;5016740;28;20038;-52
2021/10/29 03:05:43;;;;;;;41.85;28.33;;;;;;;4.87;100.00;100704.34;5022901;28;20299;-56
2021/10/29 03:08:08;;;;;;;42.65;28.13;;;;;;;4.67;100.00;100714.38;5025071;28;20048;-52
2021/10/29 03:10:34;;;;;;;41.90;25.65;;;;;;;4.67;100.00;100716.03;5025650;28;20041;-58
2021/10/29 03:13:00;;;;;;;42.10;27.55;;;;;;;5.04;100.00;100716.19;5024702;28;20026;-58
2021/10/29 03:15:25;;;;;;;36.85;27.30;;;;;;;4.98;100.00;100713.31;5024714;28;20036;-57
2021/10/29 03:17:51;;;;;;;40.13;27.73;;;;;;;5.49;100.00;100714.06;5023539;28;20067;-58
2021/10/29 03:20:17;;;;;;;39.03;28.00;;;;;;;5.00;100.00;100720.22;5025028;28;20040;-55
2021/10/29 03:22:43;;;;;;;41.75;28.33;;;;;;;4.60;100.00;100712.31;5025155;28;20025;-54
2021/10/29 03:25:09;;;;;;;39.63;27.58;;;;;;;4.44;100.00;100718.31;5024941;28;20049;-58
2021/10/29 03:27:35;;;;;;;43.15;30.27;;;;;;;4.82;100.00;100719.34;5024683;28;20128;-56
2021/10/29 03:30:01;;;;;;;44.75;28.42;;;;;;;4.70;100.00;100719.59;5025198;28;20043;-55
2021/10/29 03:32:26;;;;;;;44.67;28.88;;;;;;;4.49;100.00;100719.41;5025123;28;20116;-58
2021/10/29 03:34:53;;;;;;;42.28;26.85;;;;;;;4.52;100.00;100724.59;5025141;28;20059;-54
2021/10/29 03:40:04;;;;;;;46.45;30.35;;;;;;;4.33;100.00;100725.34;5024918;28;20026;-59
2021/10/29 03:42:36;;;;;;;47.33;30.05;;;;;;;4.49;100.00;100721.94;5024410;28;20041;-55
2021/10/29 03:45:05;;;;;;;42.42;30.30;;;;;;;4.30;100.00;100719.28;5022384;28;20030;-51
2021/10/29 03:47:38;;;;;;;47.03;29.33;;;;;;;4.40;100.00;100718.06;5024534;28;20029;-57
2021/10/29 03:50:19;;;;;;;47.70;29.77;;;;;;;4.17;100.00;100716.91;5024488;28;20045;-58
2021/10/29 03:55:21;;;;;;;50.08;31.77;;;;;;;4.05;100.00;100717.13;5024026;28;20505;-58
2021/10/29 03:57:46;;;;;;;43.92;29.40;;;;;;;4.21;100.00;100717.13;5024548;28;20517;-56
2021/10/29 04:00:12;;;;;;;44.08;29.85;;;;;;;3.94;100.00;100724.16;5024563;28;20037;-55
2021/10/29 04:02:38;;;;;;;43.03;30.05;;;;;;;4.02;100.00;100714.41;5024551;28;20038;-50
2021/10/29 04:05:04;;;;;;;41.17;28.35;;;;;;;3.96;100.00;100709.03;5024031;28;20037;-54
2021/10/29 04:07:29;;;;;;;49.03;31.02;;;;;;;3.81;100.00;100709.09;5024589;28;20036;-57
2021/10/29 04:09:55;;;;;;;44.28;28.90;;;;;;;4.02;100.00;100711.88;5024338;28;20048;-51
2021/10/29 04:12:20;;;;;;;48.30;30.83;;;;;;;4.28;100.00;100715.78;5024263;28;20796;-55
2021/10/29 04:14:46;;;;;;;43.83;27.52;;;;;;;4.30;100.00;100717.59;5024244;28;20037;-55
2021/10/29 04:17:12;;;;;;;41.97;28.55;;;;;;;4.09;100.00;100712.28;5024661;28;20037;-56
2021/10/29 04:19:38;;;;;;;43.42;30.20;;;;;;;3.88;100.00;100713.69;5022606;28;20029;-54
2021/10/29 04:22:04;;;;;;;38.67;28.10;;;;;;;4.11;100.00;100714.03;5024240;28;20030;-56
2021/10/29 04:24:29;;;;;;;45.53;29.70;;;;;;;4.22;100.00;100712.94;5024982;28;20490;-54
2021/10/29 04:27:00;;;;;;;45.00;30.40;;;;;;;4.65;100.00;100717.63;5023882;28;20043;-53
2021/10/29 04:29:29;;;;;;;41.17;29.08;;;;;;;4.39;100.00;100717.22;5024511;28;20147;-52
2021/10/29 04:31:54;;;;;;;45.47;30.10;;;;;;;4.26;100.00;100709.75;5023171;28;20343;-57
2021/10/29 04:34:25;;;;;;;45.70;30.77;;;;;;;4.18;100.00;100711.91;5023362;28;20033;-56
2021/10/29 04:36:52;;;;;;;45.53;30.35;;;;;;;4.03;100.00;100713.66;5022692;28;20061;-58
2021/10/29 04:39:20;;;;;;;47.22;31.52;;;;;;;4.09;100.00;100711.41;5024970;28;20523;-56
2021/10/29 04:41:50;;;;;;;43.30;29.33;;;;;;;3.86;100.00;100717.81;5027538;28;20037;-56
2021/10/29 04:44:16;;;;;;;46.40;30.20;;;;;;;4.39;100.00;100711.22;5027829;28;20047;-54
2021/10/29 04:46:42;;;;;;;48.97;31.90;;;;;;;3.87;100.00;100713.63;5027883;28;20036;-53
2021/10/29 04:49:08;;;;;;;45.10;29.77;;;;;;;3.95;100.00;100707.31;5027315;28;20037;-57
2021/10/29 04:51:34;;;;;;;46.28;29.65;;;;;;;3.99;100.00;100712.59;5027771;28;20066;-56
2021/10/29 04:54:00;;;;;;;44.35;28.75;;;;;;;3.87;100.00;100703.50;5027757;28;20029;-57
2021/10/29 04:56:26;;;;;;;48.03;30.30;;;;;;;4.18;100.00;100705.97;5027185;28;20525;-55
2021/10/29 04:58:52;;;;;;;44.70;29.92;;;;;;;4.01;100.00;100703.41;5027374;28;20057;-58
2021/10/29 05:01:18;;;;;;;48.03;31.65;;;;;;;4.30;100.00;100707.47;5027293;28;20044;-57
2021/10/29 05:03:44;;;;;;;44.92;30.55;;;;;;;4.16;100.00;100705.00;5027122;28;20033;-52
2021/10/29 05:06:10;;;;;;;47.63;30.17;;;;;;;3.98;100.00;100712.53;5027140;28;20025;-59
2021/10/29 05:08:37;;;;;;;47.35;31.45;;;;;;;3.91;100.00;100716.38;5027643;28;20048;-52
2021/10/29 05:11:04;;;;;;;48.90;31.65;;;;;;;3.77;100.00;100710.59;5024065;28;20040;-55
2021/10/29 05:13:30;;;;;;;46.70;31.95;;;;;;;3.98;100.00;100715.94;5027629;28;20091;-54
2021/10/29 05:15:55;;;;;;;46.40;31.80;;;;;;;4.15;100.00;100713.41;5027440;28;20453;-59
2021/10/29 05:18:21;;;;;;;48.22;31.40;;;;;;;4.06;100.00;100706.19;5026877;28;20120;-57
2021/10/29 05:20:47;;;;;;;42.75;30.48;;;;;;;3.94;100.00;100714.03;5027293;28;20037;-56
2021/10/29 05:23:16;;;;;;;54.28;33.75;;;;;;;3.43;100.00;100710.47;5024472;28;20120;-54
2021/10/29 05:25:42;;;;;;;50.63;34.80;;;;;;;3.41;100.00;100706.94;5025482;28;20119;-55
2021/10/29 05:28:09;;;;;;;63.38;35.97;;;;;;;3.30;100.00;100700.44;5026510;28;20037;-54
2021/10/29 05:30:35;;;;;;;55.80;35.28;;;;;;;3.84;100.00;100701.69;5027002;28;20072;-50
2021/10/29 05:33:02;;;;;;;56.03;35.72;;;;;;;3.34;100.00;100711.63;5027850;28;20115;-52
2021/10/29 05:35:28;;;;;;;57.20;35.63;;;;;;;3.28;100.00;100702.91;5027384;28;20047;-49
2021/10/29 05:37:54;;;;;;;54.60;36.45;;;;;;;3.55;100.00;100703.50;5043055;28;20340;-53
2021/10/29 05:40:20;;;;;;;58.33;36.35;;;;;;;3.69;100.00;100703.38;5044573;28;20422;-56
2021/10/29 05:42:46;;;;;;;50.55;35.00;;;;;;;3.80;100.00;100699.78;5045072;28;20492;-52
2021/10/29 05:45:12;;;;;;;57.03;36.53;;;;;;;3.62;100.00;100699.66;5044971;28;20051;-52
2021/10/29 05:47:38;;;;;;;47.50;33.28;;;;;;;3.90;100.00;100703.66;5046666;28;20566;-55
2021/10/29 05:50:09;;;;;;;54.20;35.92;;;;;;;3.43;100.00;100697.81;5044659;28;20056;-54
2021/10/29 05:52:38;;;;;;;52.72;35.45;;;;;;;3.95;100.00;100708.16;5044766;28;20043;-57
2021/10/29 05:55:17;;;;;;;47.45;33.00;;;;;;;4.04;100.00;100703.59;5043478;28;20493;-54
2021/10/29 05:57:50;;;;;;;50.17;34.63;;;;;;;3.99;100.00;100710.06;5044871;28;20957;-52
2021/10/29 06:00:23;;;;;;;53.80;34.28;;;;;;;3.80;100.00;100714.97;5043690;28;20528;-53
2021/10/29 06:02:49;;;;;;;54.70;34.13;;;;;;;3.72;100.00;100729.75;5044973;28;20036;-50
2021/10/29 06:05:16;;;;;;;52.65;34.60;;;;;;;3.28;100.00;100722.25;5044885;28;20086;-52
2021/10/29 06:07:42;;;;;;;56.15;37.45;;;;;;;3.10;100.00;100718.69;5046202;28;20041;-54
2021/10/29 06:10:13;;;;;;;59.22;37.45;;;;;;;3.32;100.00;100717.44;5046212;28;20044;-54
2021/10/29 06:12:39;;;;;;;62.80;37.88;;;;;;;3.37;100.00;100711.78;5045049;28;20041;-54
2021/10/29 06:15:07;;;;;;;57.70;36.67;;;;;;;3.37;100.00;100716.81;5044853;28;20053;-51
2021/10/29 06:17:33;;;;;;;54.30;35.63;;;;;;;3.67;100.00;100720.16;5044651;28;20090;-55
2021/10/29 06:20:00;;;;;;;54.58;36.17;;;;;;;3.64;100.00;100720.00;5047121;28;20033;-58
2021/10/29 06:22:30;;;;;;;57.03;37.50;;;;;;;3.88;100.00;100723.81;5045827;28;20168;-57
2021/10/29 06:24:57;;;;;;;60.28;38.42;;;;;;;4.04;100.00;100730.59;5045425;28;20111;-55
2021/10/29 06:29:49;;;;;;;60.85;38.03;;;;;;;4.53;100.00;100726.38;5045890;28;20064;-56
2021/10/29 06:32:20;;;;;;;55.85;36.38;;;;;;;4.20;100.00;100724.63;5045445;28;20028;-54
2021/10/29 06:34:46;;;;;;;62.50;39.40;;;;;;;4.47;100.00;100730.25;5045413;28;20044;-57
2021/10/29 06:37:16;;;;;;;57.05;38.67;;;;;;;4.24;100.00;100729.94;5045125;28;20164;-51
2021/10/29 06:39:43;;;;;;;66.25;42.30;;;;;;;3.97;100.00;100734.44;5043960;28;20078;-57
2021/10/29 06:42:14;;;;;;;62.53;41.28;;;;;;;4.21;100.00;100729.81;5044357;28;20071;-55
2021/10/29 06:44:51;;;;;;;63.20;40.78;;;;;;;3.95;100.00;100735.16;5041289;28;20059;-55
2021/10/29 06:47:36;;;;;;;59.25;40.28;;;;;;;4.60;100.00;100738.56;5045615;28;20084;-50
2021/10/29 07:00:47;;;;;;;61.95;39.97;;;;;;;5.22;100.00;100737.38;5004547;28;20041;-56
2021/10/29 07:41:51;;;;;;;59.30;40.03;;;;;;;6.21;100.00;100746.16;5005002;28;20048;-53
2021/10/29 07:44:20;;;;;;;60.65;38.42;;;;;;;6.18;100.00;100740.94;5003927;28;20037;-53
2021/10/29 07:46:46;;;;;;;58.33;39.83;;;;;;;6.17;100.00;100745.97;5004857;28;20137;-57
2021/10/29 07:49:12;;;;;;;55.97;37.13;;;;;;;6.41;100.00;100746.16;5033222;28;20131;-51
2021/10/29 07:51:39;;;;;;;60.35;39.03;;;;;;;6.58;100.00;100752.84;5036857;28;20047;-52
2021/10/29 07:54:11;;;;;;;57.20;37.10;;;;;;;7.66;100.00;100754.69;5014376;28;20505;-59
2021/10/29 07:56:37;;;;;;;52.40;36.85;;;;;;;8.43;100.00;100751.59;5014873;28;20490;-54
2021/10/29 07:59:03;;;;;;;49.83;34.88;;;;;;;8.02;100.00;100751.78;5010982;28;20045;-48
2021/10/29 08:01:32;;;;;;;48.78;34.05;;;;;;;8.03;100.00;100752.66;5014844;28;20064;-52
2021/10/29 08:03:58;;;;;;;52.50;33.85;;;;;;;7.80;100.00;100762.00;5023719;28;20041;-55
2021/10/29 08:06:32;;;;;;;50.78;33.33;;;;;;;7.81;100.00;100751.88;5019929;28;20124;-51
2021/10/29 08:09:00;;;;;;;51.92;34.78;;;;;;;7.60;100.00;100753.59;5015728;28;20084;-55
2021/10/29 08:11:27;;;;;;;50.28;34.15;;;;;;;7.88;100.00;100760.63;5006689;28;20048;-48
2021/10/29 08:13:52;;;;;;;51.25;35.42;;;;;;;7.97;100.00;100758.41;5017237;28;20033;-54
2021/10/29 08:16:18;;;;;;;50.67;35.58;;;;;;;7.76;100.00;100753.34;5020699;28;20041;-57
2021/10/29 08:18:45;;;;;;;46.63;34.88;;;;;;;7.95;100.00;100754.03;5026281;28;20571;-57
2021/10/29 08:21:13;;;;;;;45.88;33.08;;;;;;;7.87;100.00;100762.28;5014307;28;20481;-55
2021/10/29 08:23:43;;;;;;;45.53;31.30;;;;;;;8.07;100.00;100751.97;5014972;28;20034;-56
2021/10/29 08:26:12;;;;;;;47.42;34.22;;;;;;;8.02;100.00;100756.88;5020698;28;20032;-56
2021/10/29 08:28:41;;;;;;;51.33;33.60;;;;;;;8.04;100.00;100750.19;5015430;28;20042;-55
2021/10/29 08:31:07;;;;;;;50.10;36.17;;;;;;;7.95;100.00;100754.03;5008451;28;20571;-51
2021/10/29 08:33:33;;;;;;;49.50;34.63;;;;;;;8.00;100.00;100743.22;5013802;28;20054;-52
2021/10/29 08:36:00;;;;;;;51.55;35.25;;;;;;;8.35;100.00;100753.81;5013096;28;20418;-53
2021/10/29 08:38:26;;;;;;;45.85;33.08;;;;;;;8.38;100.00;100748.88;5007088;28;20042;-54
2021/10/29 08:40:54;;;;;;;48.67;34.85;;;;;;;8.46;100.00;100749.13;5007305;28;20069;-54
2021/10/29 08:43:21;;;;;;;50.72;33.63;;;;;;;8.53;100.00;100758.75;5006949;28;20112;-56
2021/10/29 08:45:47;;;;;;;45.72;33.65;;;;;;;8.66;100.00;100746.47;5006691;28;20132;-52
2021/10/29 08:48:13;;;;;;;44.78;32.67;;;;;;;8.89;100.00;100756.59;5006889;28;20034;-51
2021/10/29 08:50:40;;;;;;;47.40;32.45;;;;;;;8.89;100.00;100744.69;5006791;28;20572;-54
2021/10/29 08:53:06;;;;;;;44.35;33.15;;;;;;;8.82;100.00;100750.38;5007273;28;20033;-55
2021/10/29 08:55:34;;;;;;;42.33;33.10;;;;;;;8.75;100.00;100750.16;5008482;28;20045;-50
2021/10/29 08:58:03;;;;;;;46.42;31.60;;;;;;;9.05;100.00;100740.94;5008034;28;20204;-54
2021/10/29 09:00:35;;;;;;;47.75;33.03;;;;;;;9.01;100.00;100740.78;5007503;28;20408;-57
2021/10/29 09:03:07;;;;;;;46.35;33.08;;;;;;;8.99;100.00;100742.44;5007812;28;20113;-55
2021/10/29 09:05:44;;;;;;;42.08;31.63;;;;;;;9.26;99.78;100737.34;5007717;28;20049;-48
2021/10/29 09:08:16;;;;;;;40.97;30.80;;;;;;;9.49;100.00;100738.06;5007723;28;20036;-56
2021/10/29 09:17:09;;;;;;;41.95;29.35;;;;;;;10.32;95.28;100739.69;5007680;28;20131;-51
2021/10/29 09:31:33;;;;;;;37.72;28.60;;;;;;;10.94;90.16;100719.94;5007041;28;20061;-51
2021/10/29 09:34:09;;;;;;;37.13;28.70;;;;;;;11.18;89.18;100722.25;5006833;28;20034;-52
2021/10/29 09:36:43;;;;;;;38.80;29.00;;;;;;;11.04;90.18;100720.16;5003702;28;20037;-49
2021/10/29 09:39:21;;;;;;;38.28;28.85;;;;;;;10.65;92.37;100724.34;5006990;28;20036;-54
2021/10/29 09:42:04;;;;;;;39.92;29.38;;;;;;;11.30;87.46;100725.91;5006886;28;20076;-55
2021/10/29 09:44:53;;;;;;;38.95;28.42;;;;;;;11.03;88.78;100723.56;5006720;28;20587;-54
2021/10/29 09:47:22;;;;;;;38.17;28.13;;;;;;;11.17;89.25;100725.63;5007012;28;20074;-50
2021/10/29 09:57:34;;;;;;;39.67;27.90;;;;;;;11.20;87.62;100719.72;5006629;28;20060;-50
2021/10/29 10:00:06;;;;;;;36.90;27.98;;;;;;;11.39;88.88;100726.13;5006825;28;20030;-50
2021/10/29 10:02:33;;;;;;;39.20;27.23;;;;;;;11.32;87.02;100717.41;5005055;28;20117;-52
2021/10/29 10:05:02;;;;;;;36.65;28.85;;;;;;;11.45;87.71;100722.00;5004399;28;20026;-53
2021/10/29 10:07:37;;;;;;;40.40;28.30;;;;;;;11.60;85.99;100723.16;5004503;28;20135;-49
2021/10/29 10:10:07;;;;;;;38.30;27.13;;;;;;;11.64;85.61;100728.41;5004472;28;20037;-49
2021/10/29 10:12:36;;;;;;;33.70;25.33;;;;;;;11.90;84.53;100718.72;5004798;28;20427;-54
2021/10/29 10:15:04;;;;;;;37.35;26.67;;;;;;;12.34;84.67;100718.75;5004511;28;20033;-55
2021/10/29 10:17:30;;;;;;;31.75;25.25;;;;;;;13.38;79.41;100728.25;5006434;28;20038;-55
2021/10/29 10:19:58;;;;;;;32.60;25.27;;;;;;;14.93;69.87;100728.38;5006846;28;20088;-51
2021/10/29 10:22:27;;;;;;;29.05;24.02;;;;;;;15.66;66.85;100738.34;5013091;28;20037;-51
2021/10/29 10:25:05;;;;;;;31.85;24.75;;;;;;;15.10;68.52;100728.50;5016602;28;20406;-51
2021/10/29 10:27:55;;;;;;;27.52;23.45;;;;;;;16.20;64.25;100723.09;5011534;28;20033;-53
2021/10/29 10:46:49;;;;;;;27.00;21.23;;;;;;;22.51;42.09;100723.13;5016811;28;20402;-54
2021/10/29 10:49:20;;;;;;;21.17;18.92;;;;;;;24.46;35.36;100730.16;5014167;28;20026;-57
2021/10/29 10:52:08;;;;;;;22.35;20.08;;;;;;;22.68;37.14;100723.59;5014934;28;20390;-55
2021/10/29 10:54:47;;;;;;;22.35;19.52;;;;;;;21.83;40.16;100716.75;5016159;28;20181;-57
2021/10/29 11:03:12;;;;;;;22.75;19.50;;;;;;;26.72;30.58;100710.72;5016103;28;20044;-54
2021/10/29 11:05:45;;;;;;;23.50;20.57;;;;;;;26.81;29.24;100704.22;5021902;28;20029;-56
2021/10/29 11:11:04;;;;;;;22.23;19.88;;;;;;;26.91;29.36;100700.31;5011171;28;20053;-51
2021/10/29 11:13:42;;;;;;;;;;;;;;;27.52;29.41;100702.94;5008508;28;20125;-56
2021/10/29 11:16:09;;;;;;;22.33;19.20;;;;;;;24.93;33.06;100691.09;5005140;28;20352;-55
2021/10/29 11:18:38;;;;;;;21.83;19.60;;;;;;;24.30;35.40;100687.00;5022876;28;20049;-58
2021/10/29 11:21:21;;;;;;;23.15;20.75;;;;;;;27.08;29.72;100694.31;5024691;28;20036;-58
2021/10/29 11:23:59;;;;;;;22.75;20.58;;;;;;;21.46;39.55;100674.94;5015502;28;20702;-58
2021/10/29 11:26:30;;;;;;;24.27;20.40;;;;;;;23.21;38.42;100673.56;5040222;22;20197;-54
2021/10/29 11:28:58;;;;;;;25.83;22.55;;;;;;;21.39;40.06;100664.66;5014747;28;20049;-55
2021/10/29 11:31:36;;;;;;;25.15;22.55;;;;;;;21.13;41.12;100647.75;5013496;28;20066;-53
2021/10/29 11:34:05;;;;;;;25.17;22.02;;;;;;;21.73;40.19;100646.59;5013424;28;20087;-54
2021/10/29 11:36:37;;;;;;;22.98;20.58;;;;;;;22.16;40.05;100649.16;5019478;28;20033;-55
2021/10/29 11:39:07;;;;;;;21.25;19.05;;;;;;;25.45;32.88;100651.72;5024601;28;20457;-56
2021/10/29 11:41:36;;;;;;;22.27;19.77;;;;;;;22.00;38.66;100647.72;5024664;28;20393;-53
2021/10/29 11:44:14;;;;;;;21.50;19.42;;;;;;;23.62;36.44;100648.91;5024761;28;20040;-55
2021/10/29 11:46:42;;;;;;;22.52;20.13;;;;;;;21.89;38.83;100639.31;5023935;28;20025;-53
2021/10/29 11:49:11;;;;;;;22.10;19.88;;;;;;;21.27;40.02;100637.06;5024646;28;20029;-55
2021/10/29 11:51:38;;;;;;;20.88;18.73;;;;;;;24.45;34.26;100642.06;5024710;28;20123;-56
2021/10/29 11:57:04;;;;;;;20.55;18.55;;;;;;;23.56;35.47;100628.16;5018978;28;20485;-54
2021/10/29 12:07:43;;;;;;;20.92;18.33;;;;;;;18.33;47.98;100609.69;5023940;28;20470;-55
2021/10/29 12:10:17;;;;;;;22.02;18.70;;;;;;;17.80;49.62;100605.72;5023811;28;20292;-55
2021/10/29 12:12:45;;;;;;;23.65;18.77;;;;;;;16.85;52.33;100595.66;5022068;28;20037;-56
2021/10/29 12:15:21;;;;;;;23.85;20.15;;;;;;;16.64;54.69;100586.19;5023513;28;20504;-55
2021/10/29 12:18:00;;;;;;;20.00;17.92;;;;;;;17.10;52.69;100587.84;5024081;28;20052;-52
2021/10/29 12:20:37;;;;;;;19.80;17.27;;;;;;;17.88;49.61;100580.63;5023999;28;20069;-56
2021/10/29 12:23:14;;;;;;;20.67;18.30;;;;;;;16.22;54.49;100579.25;5024416;28;20034;-54
2021/10/29 12:30:53;;;;;;;21.08;17.58;;;;;;;17.29;50.41;100576.59;5025145;28;20571;-52
2021/10/29 12:39:15;;;;;;;19.65;17.58;;;;;;;16.03;54.83;100556.00;5024120;28;20405;-54
2021/10/29 13:01:26;;;;;;;20.65;18.45;;;;;;;16.87;54.07;100547.38;5027838;28;20109;-56
2021/10/29 13:04:06;;;;;;;19.95;17.85;;;;;;;16.42;55.22;100543.09;5027692;28;20030;-56
2021/10/29 13:06:35;;;;;;;22.17;19.17;;;;;;;16.31;56.41;100540.50;5027123;28;20042;-54
2021/10/29 13:09:11;;;;;;;22.60;19.67;;;;;;;16.45;55.90;100546.53;5027487;28;20026;-53
2021/10/29 13:11:45;;;;;;;21.52;18.65;;;;;;;16.59;54.65;100540.50;5027100;28;20120;-53
2021/10/29 13:14:14;;;;;;;23.88;19.23;;;;;;;16.33;56.41;100531.06;5027172;28;20440;-52
2021/10/29 13:16:40;;;;;;;23.23;18.83;;;;;;;15.54;58.59;100542.97;5027112;28;20087;-55
2021/10/29 13:19:23;;;;;;;20.05;17.92;;;;;;;16.58;55.35;100534.47;5027878;28;20037;-57
2021/10/29 13:51:15;;;;;;;22.55;20.17;;;;;;;17.27;52.14;100521.34;5006785;28;20065;-54
2021/10/29 13:56:19;;;;;;;28.70;22.27;;;;;;;17.24;53.13;100517.06;5025908;28;20079;-54
2021/10/29 14:01:52;;;;;;;56.53;41.50;;;;;;;20.14;46.00;100516.72;5024999;28;20577;-54
2021/10/29 14:16:21;;;;;;;22.77;20.48;;;;;;;20.70;43.90;100520.09;5025509;28;20038;-53
2021/10/29 14:31:50;;;;;;;23.02;18.63;;;;;;;17.68;51.30;100500.44;5024875;28;20595;-53
2021/10/29 14:34:26;;;;;;;19.77;17.70;;;;;;;17.64;51.79;100495.28;5025198;28;20040;-47
2021/10/29 14:39:43;;;;;;;21.63;18.33;;;;;;;15.91;57.04;100494.03;5020253;28;20066;-52
2021/10/29 14:44:46;;;;;;;21.35;19.13;;;;;;;15.58;58.08;100492.22;5024587;28;20032;-52
2021/10/29 14:47:23;;;;;;;21.73;18.23;;;;;;;14.79;61.82;100487.66;5023478;28;20083;-55
2021/10/29 15:01:07;;;;;;;39.33;28.13;;;;;;;13.99;66.21;100473.31;5024025;28;20252;-51